Time;durP1;ratioP1;P1;durP2;ratioP2;P2;SDS_P1;SDS_P2;PMS_P1;PMS_P2;Temp;Humidity;BMP_temperature;BMP_pressure;BME280_temperature;BME280_humidity;BME280_pressure;Samples;Min_cycle;Max_cycle;Signal;HPM_P1;HPM_P2
2022/09/12 00:01:09;;;;;;;3.53;3.27;;;13.30;99.90;;;;;;5051790;28;20210;-47
2022/09/12 00:03:39;;;;;;;4.33;3.97;;;13.10;99.90;;;;;;5052381;28;20230;-48
2022/09/12 00:06:09;;;;;;;3.80;3.50;;;13.20;99.90;;;;;;5063426;28;20201;-47
2022/09/12 00:08:38;;;;;;;3.73;3.43;;;13.20;99.90;;;;;;5042623;28;20274;-46
2022/09/12 00:11:06;;;;;;;4.63;3.40;;;13.00;99.90;;;;;;5036881;28;20191;-47
2022/09/12 00:13:33;;;;;;;4.20;3.90;;;13.10;99.90;;;;;;5045370;28;20734;-47
2022/09/12 00:16:00;;;;;;;5.20;4.20;;;13.10;99.90;;;;;;5056068;28;20187;-47
2022/09/12 00:18:27;;;;;;;5.07;3.83;;;13.10;99.90;;;;;;5037932;28;20586;-50
2022/09/12 00:20:54;;;;;;;4.13;3.57;;;13.10;99.90;;;;;;5041380;28;20211;-47
2022/09/12 00:23:21;;;;;;;3.90;3.60;;;13.10;99.90;;;;;;5043250;28;20308;-47
2022/09/12 00:25:49;;;;;;;5.90;3.87;;;13.10;99.90;;;;;;5028812;28;20254;-51
2022/09/12 00:28:17;;;;;;;4.37;3.90;;;13.00;99.90;;;;;;5045323;28;20206;-45
2022/09/12 00:30:46;;;;;;;4.57;3.40;;;13.00;99.90;;;;;;5054306;28;20192;-45
2022/09/12 00:33:14;;;;;;;4.57;3.43;;;13.00;99.90;;;;;;5043079;28;20206;-47
2022/09/12 00:35:43;;;;;;;3.40;3.10;;;13.00;99.90;;;;;;5059543;28;20218;-45
2022/09/12 00:38:10;;;;;;;3.47;3.17;;;13.00;99.90;;;;;;5063000;28;20195;-45
2022/09/12 00:40:37;;;;;;;4.87;3.70;;;13.00;99.90;;;;;;5045886;28;20275;-45
2022/09/12 00:43:06;;;;;;;3.50;3.20;;;12.90;99.90;;;;;;5043004;28;20192;-51
2022/09/12 00:45:33;;;;;;;4.73;3.10;;;12.90;99.90;;;;;;5049493;28;20232;-46
2022/09/12 00:48:03;;;;;;;3.23;2.90;;;12.70;99.90;;;;;;5045016;28;20282;-49
2022/09/12 00:50:32;;;;;;;3.77;3.23;;;12.60;99.90;;;;;;5043713;28;20683;-50
2022/09/12 00:53:04;;;;;;;3.83;3.13;;;12.70;99.90;;;;;;5045082;28;20187;-46
2022/09/12 00:55:36;;;;;;;3.50;3.20;;;12.70;99.90;;;;;;5060255;28;20225;-45
2022/09/12 00:58:11;;;;;;;4.13;3.17;;;12.70;99.90;;;;;;5038354;28;20202;-48
2022/09/12 01:00:38;;;;;;;4.57;3.50;;;12.70;99.90;;;;;;5043008;28;20202;-47
2022/09/12 01:03:08;;;;;;;3.30;3.03;;;12.70;99.90;;;;;;5061178;28;20250;-46
2022/09/12 01:05:39;;;;;;;4.93;2.80;;;12.70;99.90;;;;;;5052230;28;20660;-45
2022/09/12 01:08:07;;;;;;;2.90;2.70;;;12.70;99.90;;;;;;5065523;28;20194;-47
2022/09/12 01:10:37;;;;;;;3.93;3.63;;;12.70;99.90;;;;;;5063805;28;20195;-47
2022/09/12 01:13:08;;;;;;;3.23;2.93;;;12.60;99.90;;;;;;5040772;28;20588;-45
2022/09/12 01:15:37;;;;;;;3.37;3.17;;;12.60;99.90;;;;;;5044583;28;20275;-45
2022/09/12 01:18:15;;;;;;;4.33;3.20;;;12.60;99.90;;;;;;5045444;28;20203;-46
2022/09/12 01:20:51;;;;;;;3.87;3.17;;;12.60;99.90;;;;;;5047013;28;20221;-45
2022/09/12 01:23:45;;;;;;;3.47;3.13;;;12.50;99.90;;;;;;5064412;28;20775;-47
2022/09/12 01:26:38;;;;;;;4.47;2.70;;;12.50;99.90;;;;;;5067008;28;20195;-45
2022/09/12 01:29:25;;;;;;;3.00;2.80;;;12.40;99.90;;;;;;5039795;28;20195;-46
2022/09/12 01:32:00;;;;;;;3.30;3.00;;;12.40;99.90;;;;;;5059134;28;20218;-47
2022/09/12 01:34:35;;;;;;;3.00;2.80;;;12.40;99.90;;;;;;5051641;28;20582;-46
2022/09/12 01:37:10;;;;;;;3.33;2.60;;;12.30;99.90;;;;;;5057354;28;20684;-44
2022/09/12 01:39:43;;;;;;;2.63;2.43;;;12.30;99.90;;;;;;5042794;28;20195;-47
2022/09/12 01:42:19;;;;;;;3.00;2.80;;;12.30;99.90;;;;;;5044497;28;20218;-48
2022/09/12 01:44:54;;;;;;;2.03;1.93;;;12.30;99.90;;;;;;5041888;28;20213;-48
2022/09/12 01:47:31;;;;;;;3.00;2.77;;;12.30;99.90;;;;;;5047234;28;20195;-47
2022/09/12 01:50:02;;;;;;;2.60;2.40;;;12.30;99.90;;;;;;5046628;28;20192;-45
2022/09/12 01:52:38;;;;;;;3.30;2.60;;;12.30;99.90;;;;;;5057287;28;20199;-48
2022/09/12 01:55:10;;;;;;;2.97;2.77;;;12.30;99.90;;;;;;5025589;28;20219;-47
2022/09/12 01:57:42;;;;;;;3.07;2.87;;;12.20;99.90;;;;;;5044255;28;20191;-47
2022/09/12 02:00:11;;;;;;;2.90;2.70;;;12.20;99.90;;;;;;5041954;28;20205;-45
2022/09/12 02:02:51;;;;;;;3.10;2.90;;;12.20;99.90;;;;;;5044410;28;20192;-46
2022/09/12 02:05:25;;;;;;;2.93;2.73;;;12.20;99.90;;;;;;5048717;28;20215;-46
2022/09/12 02:07:56;;;;;;;2.90;2.70;;;12.20;99.90;;;;;;5059285;28;20327;-47
2022/09/12 02:10:30;;;;;;;3.00;2.77;;;12.10;99.90;;;;;;5060753;28;20214;-46
2022/09/12 02:13:01;;;;;;;2.90;2.70;;;12.10;99.90;;;;;;5036363;28;20419;-44
2022/09/12 02:15:32;;;;;;;2.97;2.77;;;12.10;99.90;;;;;;5045417;28;20196;-45
2022/09/12 02:18:04;;;;;;;3.00;2.80;;;12.10;99.90;;;;;;5031020;28;20202;-46
2022/09/12 02:20:35;;;;;;;3.30;2.93;;;12.00;99.90;;;;;;5043117;28;20221;-45
2022/09/12 02:23:07;;;;;;;2.80;2.60;;;12.00;99.90;;;;;;5065130;28;20203;-44
2022/09/12 02:25:37;;;;;;;3.47;3.27;;;12.00;99.90;;;;;;5061670;28;20226;-47
2022/09/12 02:28:11;;;;;;;3.50;3.20;;;12.00;99.90;;;;;;5046548;28;20204;-45
2022/09/12 02:30:45;;;;;;;3.00;2.80;;;12.00;99.90;;;;;;5046042;28;20187;-46
2022/09/12 02:33:20;;;;;;;3.27;2.97;;;12.00;99.90;;;;;;5044461;28;20207;-48
2022/09/12 02:35:51;;;;;;;2.97;2.77;;;11.90;99.90;;;;;;5054088;28;20301;-44
2022/09/12 02:38:27;;;;;;;3.40;3.10;;;11.90;99.90;;;;;;5058666;28;20213;-47
2022/09/12 02:40:54;;;;;;;3.93;3.67;;;11.90;99.90;;;;;;5063830;28;20225;-49
2022/09/12 02:43:21;;;;;;;3.20;3.00;;;11.90;99.90;;;;;;5053630;28;20226;-44
2022/09/12 02:45:49;;;;;;;4.17;3.37;;;11.80;99.90;;;;;;5034450;28;20209;-47
2022/09/12 02:48:21;;;;;;;3.20;3.00;;;11.80;99.90;;;;;;5045324;28;20199;-45
2022/09/12 02:50:48;;;;;;;3.33;3.03;;;11.70;99.90;;;;;;5046667;28;20210;-49
2022/09/12 02:53:15;;;;;;;3.17;2.87;;;11.80;99.90;;;;;;5054101;28;20211;-49
2022/09/12 02:55:43;;;;;;;2.60;2.50;;;11.80;99.90;;;;;;5041470;28;20197;-45
2022/09/12 02:58:15;;;;;;;3.00;2.63;;;11.70;99.90;;;;;;5046318;28;20222;-47
2022/09/12 03:00:48;;;;;;;3.60;2.77;;;11.70;99.90;;;;;;5032485;28;20277;-44
2022/09/12 03:03:38;;;;;;;3.70;3.40;;;11.80;99.90;;;;;;5044029;28;20195;-47
2022/09/12 03:06:16;;;;;;;2.67;2.47;;;11.80;99.90;;;;;;5060818;28;20605;-46
2022/09/12 03:08:56;;;;;;;2.77;2.57;;;11.80;99.90;;;;;;5043827;28;20199;-46
2022/09/12 03:11:32;;;;;;;3.43;3.13;;;11.70;99.90;;;;;;5044161;28;20202;-49
2022/09/12 03:14:09;;;;;;;4.10;3.73;;;11.70;99.90;;;;;;5061014;28;20244;-44
2022/09/12 03:16:44;;;;;;;5.20;3.63;;;11.70;99.90;;;;;;5031431;28;20215;-46
2022/09/12 03:19:22;;;;;;;3.47;3.20;;;11.70;99.90;;;;;;5047939;28;20217;-47
2022/09/12 03:21:58;;;;;;;5.20;3.40;;;11.70;99.90;;;;;;5061817;28;20221;-44
2022/09/12 03:24:31;;;;;;;4.47;3.47;;;11.70;99.90;;;;;;5031482;28;20284;-46
2022/09/12 03:27:05;;;;;;;3.43;3.13;;;11.60;99.90;;;;;;5042767;28;20191;-45
2022/09/12 03:29:33;;;;;;;3.80;3.50;;;11.70;99.90;;;;;;5024839;28;20207;-48
2022/09/12 03:32:00;;;;;;;4.30;4.00;;;11.70;99.90;;;;;;5041554;28;20192;-44
2022/09/12 03:34:28;;;;;;;4.33;4.03;;;11.60;99.90;;;;;;5041457;28;20211;-46
2022/09/12 03:36:55;;;;;;;5.93;4.30;;;11.60;99.90;;;;;;5062948;28;20191;-45
2022/09/12 03:39:25;;;;;;;5.20;4.13;;;11.50;99.90;;;;;;5045049;28;20195;-47
2022/09/12 03:41:52;;;;;;;4.37;3.70;;;11.20;99.90;;;;;;5038211;28;20211;-46
2022/09/12 03:44:19;;;;;;;4.30;3.90;;;11.50;99.90;;;;;;5042797;28;20696;-44
2022/09/12 03:46:46;;;;;;;3.67;3.37;;;11.50;99.90;;;;;;5031441;28;20215;-45
2022/09/12 03:49:14;;;;;;;3.50;3.30;;;11.50;99.90;;;;;;5044530;28;20899;-45
2022/09/12 03:51:42;;;;;;;4.40;4.00;;;11.50;99.90;;;;;;5052509;28;20190;-44
2022/09/12 03:54:10;;;;;;;4.63;4.00;;;11.50;99.90;;;;;;5059516;28;20218;-49
2022/09/12 03:56:38;;;;;;;4.40;4.10;;;11.40;99.90;;;;;;5052229;28;20210;-47
2022/09/12 03:59:05;;;;;;;4.00;3.70;;;11.40;99.90;;;;;;5063675;28;20197;-45
2022/09/12 04:01:32;;;;;;;4.00;3.70;;;11.40;99.90;;;;;;5030307;28;20219;-47
2022/09/12 04:03:59;;;;;;;4.37;3.97;;;11.40;99.90;;;;;;5041293;28;20203;-45
2022/09/12 04:06:26;;;;;;;4.03;3.73;;;11.40;99.90;;;;;;5045593;28;20206;-49
2022/09/12 04:08:55;;;;;;;4.70;3.97;;;11.50;99.90;;;;;;5052476;28;20186;-47
2022/09/12 04:11:22;;;;;;;4.47;3.60;;;11.50;99.90;;;;;;5047525;28;20199;-49
2022/09/12 04:13:50;;;;;;;4.80;3.83;;;11.50;99.90;;;;;;5040928;28;20203;-47
2022/09/12 04:16:17;;;;;;;4.50;3.60;;;11.50;99.90;;;;;;5040577;28;20215;-45
2022/09/12 04:18:44;;;;;;;4.07;3.77;;;11.40;99.90;;;;;;5031194;28;20204;-44
2022/09/12 04:21:14;;;;;;;4.07;3.77;;;11.30;99.90;;;;;;5039760;28;20223;-45
2022/09/12 04:23:41;;;;;;;3.93;3.63;;;11.30;99.90;;;;;;5043173;28;20461;-45
2022/09/12 04:26:10;;;;;;;3.80;3.50;;;11.30;99.90;;;;;;5025619;28;20195;-47
2022/09/12 04:28:38;;;;;;;3.53;3.23;;;11.30;99.90;;;;;;5050654;28;20203;-48
2022/09/12 04:31:07;;;;;;;4.57;3.77;;;11.40;99.90;;;;;;5051746;28;20200;-49
2022/09/12 04:33:35;;;;;;;4.37;4.07;;;11.30;99.90;;;;;;5031612;28;20235;-49
2022/09/12 04:36:07;;;;;;;4.33;4.03;;;11.30;99.90;;;;;;5050283;28;20199;-46
2022/09/12 04:38:35;;;;;;;4.50;4.10;;;11.30;99.90;;;;;;5044085;28;20234;-46
2022/09/12 04:41:11;;;;;;;3.60;3.40;;;11.30;99.90;;;;;;5042557;28;20199;-45
2022/09/12 04:43:39;;;;;;;4.07;3.67;;;11.40;99.90;;;;;;5040136;28;20214;-44
2022/09/12 04:46:06;;;;;;;4.30;4.00;;;11.30;99.90;;;;;;5042864;28;20196;-46
2022/09/12 04:48:33;;;;;;;4.27;3.87;;;11.20;99.90;;;;;;5027319;28;20576;-47
2022/09/12 04:51:07;;;;;;;4.23;3.93;;;11.20;99.90;;;;;;5042997;28;20245;-47
2022/09/12 04:53:34;;;;;;;3.80;3.50;;;11.10;99.90;;;;;;5041003;28;20301;-44
2022/09/12 04:56:02;;;;;;;4.63;4.23;;;11.20;99.90;;;;;;5054182;28;20192;-43
2022/09/12 04:58:31;;;;;;;4.00;3.70;;;11.20;99.90;;;;;;5052211;28;20199;-46
2022/09/12 05:01:05;;;;;;;6.07;4.00;;;11.20;99.90;;;;;;5053307;28;20197;-50
2022/09/12 05:03:32;;;;;;;4.50;4.10;;;11.20;99.90;;;;;;5027396;28;20215;-47
2022/09/12 05:05:59;;;;;;;5.53;3.90;;;11.20;99.90;;;;;;5041629;28;20253;-43
2022/09/12 05:08:26;;;;;;;4.47;3.70;;;11.30;99.90;;;;;;5042715;28;20256;-44
2022/09/12 05:10:53;;;;;;;4.43;4.03;;;11.30;99.90;;;;;;5042478;28;20198;-45
2022/09/12 05:13:21;;;;;;;5.00;4.27;;;11.30;99.90;;;;;;5035312;28;20595;-47
2022/09/12 05:15:56;;;;;;;4.47;4.07;;;11.30;99.90;;;;;;5039870;28;20187;-44
2022/09/12 05:18:23;;;;;;;5.43;4.10;;;11.30;99.90;;;;;;5034346;28;20195;-46
2022/09/12 05:20:50;;;;;;;4.70;4.30;;;11.30;99.90;;;;;;5028721;28;20434;-45
2022/09/12 05:23:17;;;;;;;4.70;4.30;;;11.30;99.90;;;;;;5040825;28;20215;-47
2022/09/12 05:25:49;;;;;;;5.10;4.70;;;11.30;99.90;;;;;;5034665;28;20301;-48
2022/09/12 05:28:16;;;;;;;5.47;5.00;;;11.40;99.90;;;;;;5041847;28;20704;-49
2022/09/12 05:30:43;;;;;;;5.73;5.10;;;11.40;99.90;;;;;;5052572;28;20198;-44
2022/09/12 05:33:11;;;;;;;5.63;4.57;;;11.40;99.90;;;;;;5048333;28;20227;-45
2022/09/12 05:35:39;;;;;;;5.30;4.80;;;11.40;99.90;;;;;;5026668;28;20195;-48
2022/09/12 05:38:06;;;;;;;6.23;4.83;;;11.40;99.90;;;;;;5042856;28;20227;-44
2022/09/12 05:40:33;;;;;;;5.47;4.97;;;11.40;99.90;;;;;;5042266;28;20207;-49
2022/09/12 05:43:00;;;;;;;6.83;5.30;;;11.40;99.90;;;;;;5042535;28;20223;-44
2022/09/12 05:45:27;;;;;;;6.23;5.23;;;11.50;99.90;;;;;;5035902;28;20204;-45
2022/09/12 05:47:54;;;;;;;6.27;4.60;;;11.50;99.90;;;;;;5041334;28;20890;-47
2022/09/12 05:50:22;;;;;;;4.93;4.53;;;11.50;99.90;;;;;;5036688;28;20204;-48
2022/09/12 05:52:49;;;;;;;7.90;6.13;;;11.60;99.90;;;;;;5030350;28;20187;-44
2022/09/12 05:55:16;;;;;;;6.90;6.27;;;11.60;99.90;;;;;;5047337;28;20231;-46
2022/09/12 05:57:45;;;;;;;7.23;6.63;;;11.70;99.90;;;;;;5054989;28;20912;-46
2022/09/12 06:00:14;;;;;;;6.27;5.67;;;11.70;99.90;;;;;;5046876;28;20278;-47
2022/09/12 06:02:42;;;;;;;7.70;6.07;;;11.80;99.90;;;;;;5039623;28;20299;-45
2022/09/12 06:05:09;;;;;;;8.40;6.40;;;11.90;99.90;;;;;;5040001;28;20207;-45
2022/09/12 06:07:37;;;;;;;9.50;7.07;;;11.90;99.90;;;;;;5031341;28;20215;-46
2022/09/12 06:10:05;;;;;;;7.40;6.60;;;12.00;99.90;;;;;;5038922;28;20191;-46
2022/09/12 06:12:32;;;;;;;6.93;6.30;;;12.00;99.90;;;;;;5065642;28;20234;-45
2022/09/12 06:14:59;;;;;;;7.57;6.93;;;12.10;99.90;;;;;;5062227;28;20739;-46
2022/09/12 06:17:28;;;;;;;7.97;6.90;;;12.10;99.90;;;;;;5052498;28;20649;-46
2022/09/12 06:19:55;;;;;;;7.00;6.40;;;12.20;99.90;;;;;;5034891;28;20192;-45
2022/09/12 06:22:22;;;;;;;7.00;6.30;;;12.30;99.90;;;;;;5016514;28;20234;-47
2022/09/12 06:24:51;;;;;;;8.47;7.53;;;12.30;99.90;;;;;;5044208;28;20219;-52
2022/09/12 06:27:18;;;;;;;9.17;7.47;;;12.40;99.90;;;;;;5057871;28;20203;-44
2022/09/12 06:29:44;;;;;;;8.20;7.50;;;12.50;99.90;;;;;;5065207;28;20703;-44
2022/09/12 06:32:12;;;;;;;7.80;7.07;;;12.60;99.90;;;;;;5050430;28;20202;-45
2022/09/12 06:34:39;;;;;;;9.53;7.50;;;12.70;99.90;;;;;;5057231;28;20214;-45
2022/09/12 06:37:06;;;;;;;8.63;7.73;;;12.70;99.90;;;;;;5036000;28;20199;-44
2022/09/12 06:39:34;;;;;;;8.47;7.43;;;12.80;99.90;;;;;;5036365;28;20214;-47
2022/09/12 06:42:02;;;;;;;9.67;7.80;;;12.90;99.90;;;;;;5037665;28;20700;-44
2022/09/12 06:44:33;;;;;;;6.80;6.07;;;12.90;99.90;;;;;;5049496;28;20218;-46
2022/09/12 06:47:00;;;;;;;7.67;6.97;;;13.00;99.90;;;;;;5052439;28;20221;-44
2022/09/12 06:49:27;;;;;;;7.20;6.60;;;13.00;99.90;;;;;;5048521;28;20691;-49
2022/09/12 06:51:54;;;;;;;7.17;6.50;;;13.10;99.90;;;;;;5049154;28;20188;-44
2022/09/12 06:54:22;;;;;;;8.90;8.00;;;13.20;99.90;;;;;;5029162;28;20231;-46
2022/09/12 06:56:48;;;;;;;8.00;7.30;;;13.30;99.90;;;;;;5034507;28;20207;-44
2022/09/12 06:59:17;;;;;;;8.30;7.50;;;13.40;99.90;;;;;;5042010;28;20270;-48
2022/09/12 07:01:43;;;;;;;9.60;8.70;;;13.50;99.90;;;;;;5055379;28;20226;-47
2022/09/12 07:04:11;;;;;;;9.37;8.10;;;;;;;;;;5037770;28;20215;-48
2022/09/12 07:06:39;;;;;;;10.20;9.20;;;13.70;99.90;;;;;;5043219;28;20563;-44
2022/09/12 07:09:11;;;;;;;9.83;8.90;;;13.80;99.90;;;;;;5027618;28;20211;-49
2022/09/12 07:11:39;;;;;;;10.40;9.50;;;13.90;99.90;;;;;;5047812;28;20226;-48
2022/09/12 07:14:08;;;;;;;9.03;8.20;;;14.00;99.90;;;;;;5038232;28;20235;-49
2022/09/12 07:16:37;;;;;;;9.53;8.73;;;14.10;99.90;;;;;;5035359;28;20205;-47
2022/09/12 07:19:05;;;;;;;11.70;9.17;;;14.20;99.90;;;;;;5053726;28;20190;-45
2022/09/12 07:21:35;;;;;;;9.20;8.43;;;14.30;99.90;;;;;;5046784;28;20676;-45
2022/09/12 07:24:02;;;;;;;8.83;8.03;;;14.40;99.90;;;;;;5033720;28;21224;-46
2022/09/12 07:26:30;;;;;;;8.93;8.10;;;14.50;99.90;;;;;;5042791;28;20195;-45
2022/09/12 07:28:58;;;;;;;8.90;8.00;;;14.70;99.90;;;;;;5045445;28;20199;-48
2022/09/12 07:31:27;;;;;;;9.37;8.47;;;14.80;99.90;;;;;;5049554;28;20229;-46
2022/09/12 07:33:55;;;;;;;8.33;7.43;;;14.90;99.90;;;;;;5032496;28;21208;-46
2022/09/12 07:36:24;;;;;;;10.10;7.33;;;15.00;99.90;;;;;;5042072;28;20202;-45
2022/09/12 07:38:54;;;;;;;8.60;7.80;;;15.10;99.90;;;;;;5041958;28;20277;-46
2022/09/12 07:41:23;;;;;;;7.73;7.00;;;15.30;99.90;;;;;;5031333;28;20211;-51
2022/09/12 07:43:52;;;;;;;7.90;7.20;;;15.40;99.90;;;;;;5041055;28;20219;-46
2022/09/12 07:46:19;;;;;;;8.33;6.77;;;15.50;99.90;;;;;;5041800;28;20200;-46
2022/09/12 07:48:50;;;;;;;7.17;6.47;;;15.60;99.90;;;;;;5043306;28;20202;-47
2022/09/12 07:51:18;;;;;;;7.53;6.87;;;15.70;99.90;;;;;;5038379;28;20206;-45
2022/09/12 07:53:45;;;;;;;8.23;6.10;;;15.80;99.90;;;;;;5038576;28;20199;-46
2022/09/12 07:56:13;;;;;;;7.20;6.40;;;15.90;99.90;;;;;;5030275;28;20209;-47
2022/09/12 07:58:41;;;;;;;6.87;6.03;;;16.10;99.90;;;;;;5046877;28;20197;-47
2022/09/12 08:01:11;;;;;;;7.17;6.60;;;16.20;99.90;;;;;;5043062;28;20321;-48
2022/09/12 08:03:39;;;;;;;6.63;6.00;;;16.30;99.90;;;;;;5042289;28;20250;-47
2022/09/12 08:06:08;;;;;;;6.03;5.50;;;16.40;99.90;;;;;;5046979;28;20200;-46
2022/09/12 08:08:37;;;;;;;6.20;5.30;;;16.50;99.90;;;;;;5040466;28;20191;-49
2022/09/12 08:11:06;;;;;;;5.73;4.97;;;16.60;99.90;;;;;;5028890;28;20210;-46
2022/09/12 08:13:36;;;;;;;6.17;5.30;;;16.70;99.90;;;;;;5039742;28;20564;-47
2022/09/12 08:16:06;;;;;;;5.33;4.93;;;16.90;99.90;;;;;;5035683;28;20286;-48
2022/09/12 08:18:33;;;;;;;5.60;5.00;;;17.00;99.90;;;;;;5041108;28;20214;-49
2022/09/12 08:21:00;;;;;;;6.40;4.63;;;17.10;99.90;;;;;;5042492;28;20191;-47
2022/09/12 08:23:28;;;;;;;8.07;5.00;;;17.20;99.90;;;;;;5040798;28;20231;-49
2022/09/12 08:26:00;;;;;;;6.27;4.90;;;17.30;99.90;;;;;;5041061;28;20253;-47
2022/09/12 08:28:27;;;;;;;5.67;4.53;;;17.40;99.90;;;;;;5028236;28;20218;-47
2022/09/12 08:30:54;;;;;;;4.73;4.43;;;17.50;99.90;;;;;;5036181;28;20215;-48
2022/09/12 08:33:21;;;;;;;6.13;5.30;;;17.60;99.90;;;;;;5045527;28;20194;-45
2022/09/12 08:35:48;;;;;;;5.50;4.90;;;17.70;99.90;;;;;;5034418;28;20195;-44
2022/09/12 08:38:15;;;;;;;5.03;4.63;;;17.80;99.90;;;;;;5062959;28;20194;-44
2022/09/12 08:40:50;;;;;;;4.50;4.20;;;17.90;99.90;;;;;;5050669;28;20915;-47
2022/09/12 08:43:32;;;;;;;5.13;4.73;;;18.00;99.90;;;;;;5036087;28;20213;-45
2022/09/12 08:46:04;;;;;;;3.80;3.60;;;18.10;99.90;;;;;;5037799;28;20279;-44
2022/09/12 08:48:31;;;;;;;4.00;3.70;;;18.10;99.90;;;;;;5042456;28;20213;-49
2022/09/12 08:50:59;;;;;;;4.17;3.73;;;18.20;99.90;;;;;;5034481;28;20262;-47
2022/09/12 08:53:29;;;;;;;4.27;3.97;;;18.20;99.90;;;;;;5044773;28;20210;-47
2022/09/12 08:55:59;;;;;;;3.60;3.40;;;18.30;99.90;;;;;;5042642;28;20809;-48
2022/09/12 08:58:29;;;;;;;4.00;3.40;;;18.40;99.90;;;;;;5030192;28;20215;-46
2022/09/12 09:01:03;;;;;;;4.37;3.23;;;18.40;99.90;;;;;;5043992;28;20196;-45
2022/09/12 09:03:56;;;;;;;3.50;3.20;;;18.50;99.90;;;;;;5043761;28;20252;-47
2022/09/12 09:06:40;;;;;;;4.90;3.00;;;18.50;99.90;;;;;;5040296;28;20862;-48
2022/09/12 09:09:13;;;;;;;2.87;2.67;;;18.50;99.90;;;;;;5041470;28;20199;-45
2022/09/12 09:11:53;;;;;;;3.30;3.10;;;18.60;99.90;;;;;;5046420;28;20656;-47
2022/09/12 09:14:50;;;;;;;2.83;2.57;;;18.70;99.90;;;;;;5028366;28;20215;-49
2022/09/12 09:17:24;;;;;;;2.63;2.43;;;18.70;99.90;;;;;;5045985;28;20191;-44
2022/09/12 09:19:56;;;;;;;2.60;2.40;;;18.80;99.90;;;;;;5039647;28;20199;-44
2022/09/12 09:22:32;;;;;;;2.30;2.20;;;18.80;99.90;;;;;;5040969;28;20332;-47
2022/09/12 09:25:04;;;;;;;3.53;2.03;;;18.90;99.90;;;;;;5041471;28;20218;-43
2022/09/12 09:27:35;;;;;;;2.80;1.90;;;19.00;99.90;;;;;;5038764;28;20726;-45
2022/09/12 09:30:04;;;;;;;2.77;2.50;;;19.10;99.90;;;;;;5042335;28;20221;-42
2022/09/12 09:32:35;;;;;;;2.83;2.13;;;19.20;99.90;;;;;;5054234;28;20210;-45
2022/09/12 09:35:17;;;;;;;2.13;2.03;;;19.30;99.90;;;;;;5041242;28;20222;-44
2022/09/12 09:37:53;;;;;;;2.13;1.83;;;19.30;99.90;;;;;;5044145;28;20187;-47
2022/09/12 09:40:26;;;;;;;1.93;1.60;;;19.30;99.90;;;;;;5045874;28;20213;-48
2022/09/12 09:42:59;;;;;;;1.70;1.60;;;19.30;99.90;;;;;;5057403;28;20964;-43
2022/09/12 09:45:28;;;;;;;3.20;2.00;;;19.40;99.90;;;;;;5029996;28;20322;-46
2022/09/12 09:48:00;;;;;;;2.10;1.90;;;19.40;99.90;;;;;;5050192;28;20203;-47
2022/09/12 09:50:28;;;;;;;1.57;1.47;;;19.50;99.90;;;;;;5043558;28;20285;-46
2022/09/12 09:52:58;;;;;;;1.50;1.40;;;19.50;99.90;;;;;;5037555;28;20202;-44
2022/09/12 09:55:33;;;;;;;4.80;1.83;;;19.60;99.90;;;;;;5059602;28;20621;-48
2022/09/12 09:58:00;;;;;;;3.17;1.30;;;19.70;99.90;;;;;;5051450;28;20186;-43
2022/09/12 10:00:30;;;;;;;1.70;1.60;;;19.80;99.90;;;;;;5029419;28;20207;-47
2022/09/12 10:03:28;;;;;;;1.50;1.33;;;19.80;99.90;;;;;;5045004;28;20218;-45
2022/09/12 10:05:59;;;;;;;2.03;1.40;;;19.90;99.90;;;;;;5052860;28;20211;-44
2022/09/12 10:08:27;;;;;;;1.63;1.40;;;19.90;99.90;;;;;;5059934;28;20200;-46
2022/09/12 10:11:00;;;;;;;2.03;1.47;;;20.00;99.90;;;;;;5055281;28;20183;-45
2022/09/12 10:13:33;;;;;;;1.70;1.13;;;20.00;99.90;;;;;;5044521;28;20269;-48
2022/09/12 10:16:05;;;;;;;1.83;1.00;;;20.00;99.90;;;;;;5027321;28;20994;-44
2022/09/12 10:18:38;;;;;;;1.90;1.63;;;20.10;99.90;;;;;;5040233;28;20222;-47
2022/09/12 10:21:17;;;;;;;1.07;1.00;;;20.10;99.90;;;;;;5046908;28;20198;-44
2022/09/12 10:23:46;;;;;;;0.97;0.97;;;20.20;99.90;;;;;;5052634;28;20211;-46
2022/09/12 10:26:15;;;;;;;1.10;1.10;;;20.20;99.90;;;;;;5048485;28;20573;-48
2022/09/12 10:28:49;;;;;;;1.10;0.70;;;20.20;99.90;;;;;;5040250;28;20199;-44
2022/09/12 10:31:27;;;;;;;0.90;0.90;;;20.30;99.90;;;;;;5029685;28;20215;-44
2022/09/12 10:33:57;;;;;;;1.63;0.90;;;20.40;99.90;;;;;;5037808;28;20227;-48
2022/09/12 10:36:24;;;;;;;1.13;1.10;;;20.40;99.90;;;;;;5037209;28;20212;-48
2022/09/12 10:38:53;;;;;;;2.13;1.07;;;20.50;99.90;;;;;;5047954;28;20204;-45
2022/09/12 10:41:21;;;;;;;3.37;1.43;;;20.50;99.90;;;;;;5054775;28;20195;-47
2022/09/12 10:43:49;;;;;;;1.70;1.43;;;20.50;99.90;;;;;;5032229;28;22854;-44
2022/09/12 10:46:28;;;;;;;2.40;1.50;;;20.50;99.90;;;;;;5043644;28;20203;-46
2022/09/12 10:49:23;;;;;;;1.47;1.37;;;20.60;99.90;;;;;;5034966;28;20199;-44
2022/09/12 10:51:50;;;;;;;2.47;2.28;;;20.60;99.90;;;;;;5035535;28;20322;-49
2022/09/12 10:54:21;;;;;;;1.90;1.80;;;20.60;99.90;;;;;;5054111;28;20615;-45
2022/09/12 10:57:02;;;;;;;3.53;1.60;;;20.60;99.90;;;;;;5037151;28;20987;-47
2022/09/12 10:59:39;;;;;;;3.05;1.95;;;20.70;99.90;;;;;;5040638;28;20195;-46
2022/09/12 11:02:20;;;;;;;1.88;1.77;;;20.70;99.90;;;;;;5049021;28;20677;-44
2022/09/12 11:05:00;;;;;;;1.67;1.58;;;20.70;99.90;;;;;;5023422;28;20238;-44
2022/09/12 11:07:37;;;;;;;4.30;1.85;;;20.80;99.90;;;;;;5044609;28;20202;-48
2022/09/12 11:10:22;;;;;;;3.83;1.98;;;20.80;99.90;;;;;;5043365;28;20694;-47
2022/09/12 11:12:57;;;;;;;1.63;1.52;;;20.80;99.90;;;;;;5039342;28;20195;-46
2022/09/12 11:15:39;;;;;;;2.40;2.20;;;20.80;99.90;;;;;;5041834;28;20211;-48
2022/09/12 11:18:19;;;;;;;2.05;1.90;;;20.80;99.90;;;;;;5042965;28;20199;-46
2022/09/12 11:20:57;;;;;;;1.83;1.73;;;20.90;99.90;;;;;;5025799;28;20213;-48
2022/09/12 11:23:48;;;;;;;4.90;2.03;;;20.90;99.90;;;;;;5037427;28;20598;-45
2022/09/12 11:26:31;;;;;;;2.40;1.85;;;20.90;99.90;;;;;;5016442;28;20246;-43
2022/09/12 11:29:07;;;;;;;2.45;2.10;;;20.90;99.90;;;;;;5057063;28;20191;-47
2022/09/12 11:31:57;;;;;;;2.03;1.83;;;21.00;99.90;;;;;;5043640;28;20210;-46
2022/09/12 11:34:34;;;;;;;2.22;2.03;;;21.00;99.90;;;;;;5037591;28;20211;-49
2022/09/12 11:37:18;;;;;;;2.00;1.90;;;21.10;99.90;;;;;;5037829;28;20679;-46
2022/09/12 11:39:48;;;;;;;1.58;1.48;;;21.20;99.90;;;;;;5053901;28;21018;-46
2022/09/12 11:42:18;;;;;;;2.08;1.88;;;21.20;99.90;;;;;;5042413;28;20203;-46
2022/09/12 11:44:48;;;;;;;2.22;1.83;;;21.20;99.90;;;;;;5044447;28;20992;-46
2022/09/12 11:47:17;;;;;;;1.85;1.75;;;21.10;99.90;;;;;;5049741;28;20210;-48
2022/09/12 11:49:47;;;;;;;1.90;1.80;;;21.10;99.90;;;;;;5026664;28;20216;-47
2022/09/12 11:52:16;;;;;;;2.60;1.80;;;21.10;99.90;;;;;;5039316;28;20249;-45
2022/09/12 11:54:47;;;;;;;3.08;1.70;;;21.10;99.90;;;;;;5042843;28;20245;-43
2022/09/12 11:57:19;;;;;;;2.63;1.92;;;21.10;99.90;;;;;;5063955;28;20190;-44
2022/09/12 11:59:51;;;;;;;1.90;1.80;;;21.10;99.90;;;;;;5041445;28;20274;-48
2022/09/12 12:02:25;;;;;;;2.15;1.45;;;21.20;99.90;;;;;;5044276;28;20195;-44
2022/09/12 12:05:20;;;;;;;1.25;1.20;;;21.20;99.90;;;;;;5044192;28;20215;-46
2022/09/12 12:07:52;;;;;;;2.90;1.60;;;21.30;99.90;;;;;;5027177;28;20210;-45
2022/09/12 12:10:34;;;;;;;1.73;1.63;;;21.40;99.90;;;;;;5036906;28;20216;-46
2022/09/12 12:13:05;;;;;;;2.47;1.50;;;21.50;99.90;;;;;;5051383;28;20210;-44
2022/09/12 12:15:34;;;;;;;2.45;1.40;;;;;;;;;;5044849;28;20563;-45
2022/09/12 12:18:08;;;;;;;1.67;1.58;;;21.80;99.90;;;;;;5050731;28;20202;-43
2022/09/12 12:20:36;;;;;;;1.33;1.15;;;21.80;99.90;;;;;;5035215;28;20238;-50
2022/09/12 12:23:03;;;;;;;2.17;1.27;;;21.80;99.90;;;;;;5041804;28;20204;-45
2022/09/12 12:25:51;;;;;;;2.92;1.33;;;21.80;99.90;;;;;;5038743;28;20229;-49
2022/09/12 12:28:51;;;;;;;1.30;1.30;;;21.90;99.90;;;;;;5026264;28;20203;-46
2022/09/12 12:31:18;;;;;;;1.83;1.55;;;22.00;99.90;;;;;;5042504;28;20561;-45
2022/09/12 12:34:02;;;;;;;1.52;1.40;;;22.10;99.90;;;;;;5056296;28;20210;-44
2022/09/12 12:36:34;;;;;;;2.40;1.80;;;22.20;99.90;;;;;;5023644;28;20704;-48
2022/09/12 12:39:48;;;;;;;1.42;1.33;;;22.20;99.90;;;;;;5043806;28;20202;-46
2022/09/12 12:42:55;;;;;;;2.22;1.70;;;22.30;99.90;;;;;;5051329;28;20668;-44
2022/09/12 12:46:11;;;;;;;1.40;1.30;;;22.30;99.90;;;;;;5017285;28;20703;-46
2022/09/12 12:49:08;;;;;;;1.65;1.55;;;22.20;99.90;;;;;;5036522;28;20207;-42
2022/09/12 12:51:56;;;;;;;2.15;1.40;;;22.10;99.90;;;;;;5036043;28;20246;-48
2022/09/12 12:54:49;;;;;;;2.20;1.55;;;22.00;99.90;;;;;;5045345;28;20268;-43
2022/09/12 12:57:29;;;;;;;3.10;1.90;;;22.10;99.90;;;;;;5055408;28;20202;-43
2022/09/12 13:00:00;;;;;;;1.70;1.52;;;22.10;99.90;;;;;;5034234;28;20218;-44
2022/09/12 13:02:31;;;;;;;1.55;1.40;;;22.10;99.90;;;;;;5041852;28;20199;-43
2022/09/12 13:05:01;;;;;;;1.70;1.60;;;22.20;99.90;;;;;;5037512;28;20587;-46
2022/09/12 13:07:32;;;;;;;1.95;1.40;;;22.20;99.90;;;;;;5030392;28;20207;-44
2022/09/12 13:10:01;;;;;;;2.03;1.60;;;22.20;99.90;;;;;;5035375;28;20199;-48
2022/09/12 13:12:31;;;;;;;1.77;1.67;;;22.20;99.90;;;;;;5042672;28;20257;-44